Time;durP1;ratioP1;P1;durP2;ratioP2;P2;SDS_P1;SDS_P2;PMS_P1;PMS_P2;Temp;Humidity;BMP_temperature;BMP_pressure;BME280_temperature;BME280_humidity;BME280_pressure;Samples;Min_cycle;Max_cycle;Signal;HPM_P1;HPM_P2
2021/05/28 00:01:42;;;;;;;5.45;2.50;;;10.80;97.20;;;;;;5059855;28;20028;-86
2021/05/28 00:04:07;;;;;;;6.95;2.80;;;10.80;97.50;;;;;;5076075;28;20395;-86
2021/05/28 00:06:33;;;;;;;6.30;2.88;;;10.70;97.40;;;;;;5076236;28;20451;-86
2021/05/28 00:08:59;;;;;;;6.07;2.92;;;10.70;97.40;;;;;;5072116;28;20028;-85
2021/05/28 00:11:24;;;;;;;5.30;2.58;;;10.70;97.40;;;;;;5039399;28;20060;-86
2021/05/28 00:13:50;;;;;;;5.68;3.00;;;10.70;97.40;;;;;;5054875;28;20525;-86
2021/05/28 00:16:16;;;;;;;5.65;3.00;;;10.60;97.30;;;;;;5056070;28;20400;-86
2021/05/28 00:18:41;;;;;;;5.63;2.70;;;10.70;97.40;;;;;;5058926;28;20044;-85
2021/05/28 00:21:07;;;;;;;6.40;3.20;;;10.60;97.50;;;;;;5055597;28;20028;-85
2021/05/28 00:23:32;;;;;;;8.13;3.53;;;10.50;97.30;;;;;;5073472;28;20037;-86
2021/05/28 00:25:58;;;;;;;7.22;3.15;;;10.50;97.30;;;;;;5041422;28;20029;-85
2021/05/28 00:28:24;;;;;;;6.57;3.00;;;10.50;97.50;;;;;;5055848;28;20065;-86
2021/05/28 00:30:50;;;;;;;6.15;3.08;;;10.50;97.50;;;;;;5055666;28;20025;-86
2021/05/28 00:33:15;;;;;;;5.53;2.80;;;10.50;97.60;;;;;;5045405;28;20094;-86
2021/05/28 00:35:41;;;;;;;5.80;3.20;;;10.40;97.60;;;;;;5055290;28;20481;-85
2021/05/28 00:38:07;;;;;;;6.53;2.83;;;10.50;97.60;;;;;;5075382;28;20580;-85
2021/05/28 00:40:32;;;;;;;8.40;3.20;;;10.40;97.70;;;;;;5075601;28;20105;-85
2021/05/28 00:42:58;;;;;;;7.65;3.42;;;10.40;97.60;;;;;;5075265;28;20043;-87
2021/05/28 00:45:24;;;;;;;7.20;3.50;;;10.40;97.70;;;;;;5075529;28;20484;-86
2021/05/28 00:47:50;;;;;;;6.22;3.50;;;10.40;97.70;;;;;;5091887;28;20031;-86
2021/05/28 00:50:15;;;;;;;7.72;3.40;;;10.30;97.60;;;;;;5075312;28;20031;-85
2021/05/28 00:52:41;;;;;;;5.38;3.05;;;10.30;97.60;;;;;;5057979;28;20021;-85
2021/05/28 00:55:08;;;;;;;9.43;3.35;;;10.30;97.50;;;;;;5058397;28;20464;-85
2021/05/28 00:57:34;;;;;;;6.78;3.25;;;10.30;97.60;;;;;;5093042;28;20036;-85
2021/05/28 01:00:01;;;;;;;6.13;3.40;;;10.30;97.50;;;;;;5058573;28;20028;-86
2021/05/28 01:02:27;;;;;;;9.40;3.72;;;10.20;97.70;;;;;;5074969;28;20028;-86
2021/05/28 01:04:53;;;;;;;4.93;3.30;;;10.20;97.70;;;;;;5057941;28;20081;-85
2021/05/28 01:07:19;;;;;;;5.90;3.40;;;10.20;97.70;;;;;;5054902;28;20031;-85
2021/05/28 01:09:44;;;;;;;7.22;3.38;;;10.20;97.70;;;;;;5074635;28;20052;-86
2021/05/28 01:12:10;;;;;;;8.18;3.38;;;10.20;97.70;;;;;;5058060;28;20444;-85
2021/05/28 01:14:36;;;;;;;8.38;4.15;;;10.20;97.60;;;;;;5058037;28;20026;-85
2021/05/28 01:17:02;;;;;;;6.88;3.60;;;10.10;97.70;;;;;;5074827;28;20484;-85
2021/05/28 01:19:28;;;;;;;7.38;3.40;;;10.10;97.50;;;;;;5087535;28;20055;-86
2021/05/28 01:21:55;;;;;;;7.65;3.80;;;10.10;97.60;;;;;;5048675;28;20027;-85
2021/05/28 01:24:22;;;;;;;7.05;3.65;;;10.10;97.60;;;;;;5074326;28;20046;-85
2021/05/28 01:26:47;;;;;;;6.05;3.40;;;10.10;97.50;;;;;;5054190;28;20029;-85
2021/05/28 01:29:14;;;;;;;8.82;3.75;;;10.00;97.50;;;;;;5066373;28;20033;-85
2021/05/28 01:31:40;;;;;;;8.80;3.58;;;10.00;97.60;;;;;;5078750;28;20073;-85
2021/05/28 01:34:06;;;;;;;6.82;3.55;;;10.00;97.70;;;;;;5071122;28;20039;-85
2021/05/28 01:36:31;;;;;;;8.32;3.53;;;10.00;97.70;;;;;;5081076;28;20051;-85
2021/05/28 01:38:57;;;;;;;7.00;3.63;;;9.90;97.70;;;;;;5081812;28;20439;-85
2021/05/28 01:41:30;;;;;;;6.35;3.65;;;9.90;97.70;;;;;;5074365;28;20059;-85
2021/05/28 01:43:56;;;;;;;6.65;3.20;;;9.90;97.90;;;;;;5092198;28;20028;-85
2021/05/28 01:46:23;;;;;;;6.70;3.10;;;9.90;97.90;;;;;;5064744;28;20542;-85
2021/05/28 01:48:49;;;;;;;7.40;3.22;;;9.90;98.00;;;;;;5091677;28;20024;-86
2021/05/28 01:51:15;;;;;;;6.72;2.90;;;9.90;97.90;;;;;;5092024;28;20035;-86
2021/05/28 01:53:41;;;;;;;6.85;3.40;;;9.90;97.90;;;;;;5090874;28;20024;-86
2021/05/28 01:56:07;;;;;;;7.45;3.42;;;9.90;98.00;;;;;;5067504;28;20531;-85
2021/05/28 01:58:33;;;;;;;9.05;4.35;;;9.90;98.10;;;;;;5080658;28;20037;-85
2021/05/28 02:00:59;;;;;;;8.60;4.28;;;9.90;98.50;;;;;;5062506;28;20048;-85
2021/05/28 02:03:25;;;;;;;7.18;4.45;;;9.90;98.30;;;;;;5087310;28;20028;-85
2021/05/28 02:05:51;;;;;;;9.20;4.90;;;9.90;98.40;;;;;;5086757;28;20024;-85
2021/05/28 02:08:17;;;;;;;7.93;4.57;;;9.90;98.40;;;;;;5082343;28;20091;-85
2021/05/28 02:10:43;;;;;;;8.88;4.60;;;9.90;98.50;;;;;;5046187;28;20480;-85
2021/05/28 02:13:10;;;;;;;8.85;4.97;;;9.90;98.50;;;;;;5069433;28;20079;-85
2021/05/28 02:15:36;;;;;;;11.38;5.53;;;9.90;98.60;;;;;;5057235;28;20062;-85
2021/05/28 02:18:02;;;;;;;9.52;5.28;;;9.90;98.60;;;;;;5053578;28;20029;-85
2021/05/28 02:20:28;;;;;;;9.63;5.50;;;10.00;98.70;;;;;;5058068;28;20051;-85
2021/05/28 02:22:53;;;;;;;9.38;5.40;;;10.00;98.80;;;;;;5056927;28;20021;-85
2021/05/28 02:25:19;;;;;;;7.32;4.88;;;10.00;98.80;;;;;;5056712;28;20480;-85
2021/05/28 02:27:45;;;;;;;8.88;5.53;;;10.00;98.80;;;;;;5091448;28;20035;-85
2021/05/28 02:30:12;;;;;;;8.98;5.30;;;10.00;98.70;;;;;;5056849;28;20028;-85
2021/05/28 02:32:38;;;;;;;8.90;5.13;;;10.00;98.70;;;;;;5084485;28;20470;-84
2021/05/28 02:35:06;;;;;;;9.38;5.70;;;9.90;98.70;;;;;;5071513;28;20027;-85
2021/05/28 02:37:32;;;;;;;9.18;5.65;;;10.00;98.80;;;;;;5091735;28;20086;-86
2021/05/28 02:39:58;;;;;;;8.73;5.60;;;10.00;98.70;;;;;;5087209;28;20123;-85
2021/05/28 02:42:24;;;;;;;10.43;5.55;;;10.00;98.70;;;;;;5064536;28;20110;-86
2021/05/28 02:44:52;;;;;;;8.30;5.72;;;10.00;98.70;;;;;;5091816;28;20032;-86
2021/05/28 02:47:17;;;;;;;9.23;6.07;;;9.90;98.70;;;;;;5091398;28;20033;-85
2021/05/28 02:49:43;;;;;;;10.50;6.78;;;10.00;98.70;;;;;;5044620;28;20042;-85
2021/05/28 02:52:08;;;;;;;8.77;6.10;;;9.90;98.80;;;;;;5079755;28;20032;-85
2021/05/28 02:54:34;;;;;;;9.77;6.43;;;9.90;98.80;;;;;;5073133;28;20028;-85
2021/05/28 02:57:00;;;;;;;7.95;5.63;;;9.90;98.80;;;;;;5073210;28;20135;-85
2021/05/28 02:59:25;;;;;;;9.93;6.53;;;9.90;98.80;;;;;;5056452;28;20491;-85
2021/05/28 03:01:51;;;;;;;8.68;5.72;;;9.90;98.80;;;;;;5079579;28;20035;-85
2021/05/28 03:04:17;;;;;;;10.60;6.70;;;9.90;98.80;;;;;;5056152;28;20036;-86
2021/05/28 03:06:43;;;;;;;10.80;6.40;;;9.90;98.80;;;;;;5053138;28;20032;-86
2021/05/28 03:09:09;;;;;;;8.55;6.30;;;9.90;98.80;;;;;;5053006;28;20487;-85
2021/05/28 03:11:35;;;;;;;9.15;6.28;;;9.90;98.90;;;;;;5074693;28;20058;-85
2021/05/28 03:14:02;;;;;;;8.32;5.95;;;9.90;98.90;;;;;;5073008;28;20025;-85
2021/05/28 03:16:28;;;;;;;9.10;6.43;;;9.90;98.80;;;;;;5075784;28;20081;-86
2021/05/28 03:18:57;;;;;;;10.13;6.45;;;9.90;98.80;;;;;;5059759;28;20035;-85
2021/05/28 03:23:52;;;;;;;8.35;6.13;;;9.90;98.70;;;;;;5077353;28;20070;-85
2021/05/28 03:26:19;;;;;;;9.30;6.80;;;9.80;98.70;;;;;;5094748;28;20036;-85
2021/05/28 03:28:44;;;;;;;9.13;6.20;;;9.90;98.70;;;;;;5079693;28;20055;-85
2021/05/28 03:31:11;;;;;;;10.27;6.75;;;9.80;98.80;;;;;;5076738;28;20070;-85
2021/05/28 03:33:36;;;;;;;9.02;6.20;;;9.80;98.80;;;;;;5070751;28;20066;-85
2021/05/28 03:36:04;;;;;;;10.20;6.88;;;9.80;98.80;;;;;;5065843;28;20028;-85
2021/05/28 03:38:30;;;;;;;10.65;6.95;;;9.80;98.80;;;;;;5091711;28;20110;-85
2021/05/28 03:40:55;;;;;;;12.50;7.25;;;9.80;98.80;;;;;;5094537;28;20172;-86
2021/05/28 03:43:21;;;;;;;10.38;6.95;;;9.90;98.90;;;;;;5053709;28;20077;-86
2021/05/28 03:45:47;;;;;;;8.80;6.68;;;9.80;98.90;;;;;;5061805;28;20115;-86
2021/05/28 03:48:12;;;;;;;9.45;6.95;;;9.80;98.90;;;;;;5084865;28;20111;-85
2021/05/28 03:50:38;;;;;;;9.88;6.55;;;9.90;99.00;;;;;;5060300;28;20024;-86
2021/05/28 03:53:03;;;;;;;10.30;6.60;;;9.90;99.00;;;;;;5076393;28;20478;-85
2021/05/28 03:55:29;;;;;;;10.85;6.63;;;9.90;99.00;;;;;;5076824;28;20024;-85
2021/05/28 03:57:55;;;;;;;10.95;6.85;;;9.80;99.00;;;;;;5051545;28;20030;-86
2021/05/28 04:00:22;;;;;;;10.68;6.97;;;9.80;99.00;;;;;;5086823;28;20384;-85
2021/05/28 04:02:47;;;;;;;10.35;6.85;;;9.80;99.00;;;;;;5059788;28;20056;-86
2021/05/28 04:05:15;;;;;;;11.13;6.78;;;9.80;99.10;;;;;;5076117;28;20463;-86
2021/05/28 04:07:41;;;;;;;11.73;6.82;;;9.80;99.10;;;;;;5059567;28;20020;-85
2021/05/28 04:10:07;;;;;;;10.70;7.28;;;9.80;99.10;;;;;;5093547;28;20063;-87
2021/05/28 04:12:33;;;;;;;9.88;7.50;;;9.80;99.20;;;;;;5075908;28;20114;-85
2021/05/28 04:14:58;;;;;;;10.57;6.70;;;9.80;99.10;;;;;;5075830;28;20107;-86
2021/05/28 04:17:24;;;;;;;11.00;7.90;;;9.80;99.20;;;;;;5075920;28;20464;-85
2021/05/28 04:19:50;;;;;;;10.50;7.13;;;9.80;99.20;;;;;;5093900;28;20016;-85
2021/05/28 04:22:15;;;;;;;11.23;6.85;;;9.80;99.20;;;;;;5055717;28;20032;-86
2021/05/28 04:24:41;;;;;;;10.45;6.72;;;9.90;99.20;;;;;;5074319;28;20024;-85
2021/05/28 04:27:06;;;;;;;9.48;6.68;;;9.90;99.30;;;;;;5074287;28;20064;-86
2021/05/28 04:29:32;;;;;;;8.88;6.35;;;9.90;99.30;;;;;;5061632;28;20123;-85
2021/05/28 04:31:58;;;;;;;12.13;7.05;;;9.90;99.30;;;;;;5058917;28;20170;-85
2021/05/28 04:34:24;;;;;;;9.90;7.50;;;9.90;99.40;;;;;;5086313;28;20079;-86
2021/05/28 04:36:50;;;;;;;12.93;7.80;;;9.90;99.40;;;;;;5078359;28;20019;-85
2021/05/28 04:39:15;;;;;;;10.07;6.85;;;9.90;99.40;;;;;;5058650;28;20028;-84
2021/05/28 04:41:41;;;;;;;10.77;7.38;;;10.00;99.40;;;;;;5047148;28;20400;-85
2021/05/28 04:44:07;;;;;;;13.77;7.45;;;10.00;99.40;;;;;;5078225;28;20023;-86
2021/05/28 04:46:33;;;;;;;12.10;7.93;;;10.00;99.40;;;;;;5058858;28;20028;-87
2021/05/28 04:48:59;;;;;;;11.07;6.97;;;10.00;99.40;;;;;;5091410;28;20032;-86
2021/05/28 04:51:24;;;;;;;12.13;6.95;;;10.00;99.40;;;;;;5055533;28;20038;-86
2021/05/28 04:53:50;;;;;;;14.88;7.85;;;10.00;99.40;;;;;;5071292;28;20036;-86
2021/05/28 04:56:17;;;;;;;10.13;7.05;;;10.00;99.50;;;;;;5063579;28;20119;-85
2021/05/28 04:58:43;;;;;;;11.70;7.57;;;10.00;99.50;;;;;;5075174;28;20035;-86
2021/05/28 05:01:09;;;;;;;11.80;7.63;;;10.10;99.50;;;;;;5093419;28;20119;-86
2021/05/28 05:03:35;;;;;;;10.25;7.28;;;10.10;99.60;;;;;;5084346;28;20106;-86
2021/05/28 05:06:01;;;;;;;11.98;6.80;;;10.10;99.50;;;;;;5092933;28;20629;-85
2021/05/28 05:08:27;;;;;;;9.02;6.07;;;10.10;99.60;;;;;;5058388;28;20134;-84
2021/05/28 05:10:55;;;;;;;9.40;5.55;;;10.10;99.60;;;;;;5063057;28;20048;-85
2021/05/28 05:13:21;;;;;;;9.07;6.13;;;10.10;99.60;;;;;;5073816;28;20111;-84
2021/05/28 05:15:47;;;;;;;8.98;5.90;;;10.10;99.60;;;;;;5091009;28;20503;-85
2021/05/28 05:18:12;;;;;;;9.30;5.70;;;10.10;99.60;;;;;;5073834;28;20033;-85
2021/05/28 05:20:38;;;;;;;9.63;6.30;;;10.20;99.60;;;;;;5058308;28;20079;-84
2021/05/28 05:23:04;;;;;;;8.40;5.75;;;10.20;99.60;;;;;;5069558;28;20037;-84
2021/05/28 05:25:30;;;;;;;7.75;5.60;;;10.20;99.60;;;;;;5048435;28;20036;-84
2021/05/28 05:27:56;;;;;;;11.07;6.60;;;10.20;99.60;;;;;;5057810;28;20136;-85
2021/05/28 05:30:22;;;;;;;9.02;5.82;;;10.20;99.60;;;;;;5046856;28;20028;-84
2021/05/28 05:32:47;;;;;;;10.60;6.07;;;10.20;99.60;;;;;;5062202;28;20029;-85
2021/05/28 05:35:14;;;;;;;9.18;6.32;;;10.20;99.60;;;;;;5056638;28;20033;-86
2021/05/28 05:37:39;;;;;;;8.85;6.05;;;10.20;99.60;;;;;;5065010;28;20017;-87
2021/05/28 05:40:07;;;;;;;9.43;5.65;;;10.20;99.60;;;;;;5062896;28;20052;-85
2021/05/28 05:42:36;;;;;;;7.57;5.43;;;10.30;99.70;;;;;;5065444;28;20040;-85
2021/05/28 05:45:02;;;;;;;9.75;6.47;;;10.20;99.70;;;;;;5087026;28;20031;-85
2021/05/28 05:47:28;;;;;;;8.85;6.20;;;10.30;99.70;;;;;;5035462;28;20036;-84
2021/05/28 05:49:53;;;;;;;8.43;5.65;;;10.30;99.70;;;;;;5055143;28;20024;-87
2021/05/28 05:52:19;;;;;;;9.52;5.97;;;10.30;99.70;;;;;;5068080;28;20029;-84
2021/05/28 05:54:46;;;;;;;7.85;5.75;;;10.30;99.70;;;;;;5053766;28;20021;-85
2021/05/28 05:57:12;;;;;;;10.55;6.30;;;10.30;99.70;;;;;;5046880;28;20499;-84
2021/05/28 05:59:38;;;;;;;9.15;5.75;;;10.30;99.70;;;;;;5054838;28;20056;-84
2021/05/28 06:02:04;;;;;;;8.25;5.50;;;10.30;99.70;;;;;;5068161;28;20029;-85
2021/05/28 06:04:29;;;;;;;8.02;6.07;;;10.30;99.70;;;;;;5034534;28;20029;-85
2021/05/28 06:06:55;;;;;;;8.43;5.57;;;10.40;99.80;;;;;;5065523;28;20078;-87
2021/05/28 06:09:21;;;;;;;9.95;6.45;;;10.30;99.70;;;;;;5067866;28;20071;-82
2021/05/28 06:11:46;;;;;;;10.32;6.95;;;10.30;99.70;;;;;;5058773;28;20084;-85
2021/05/28 06:14:12;;;;;;;9.48;6.93;;;10.40;99.70;;;;;;5061255;28;20135;-85
2021/05/28 06:16:38;;;;;;;10.95;6.55;;;10.40;99.70;;;;;;5041436;28;20487;-85
2021/05/28 06:19:04;;;;;;;8.98;6.93;;;10.30;99.60;;;;;;5043501;28;20033;-85
2021/05/28 06:21:33;;;;;;;9.63;6.50;;;10.40;99.70;;;;;;5051077;28;20029;-86
2021/05/28 06:23:59;;;;;;;10.52;7.55;;;10.40;99.70;;;;;;5064982;28;20063;-87
2021/05/28 06:26:25;;;;;;;10.00;7.00;;;10.40;99.70;;;;;;5071173;28;20033;-87
2021/05/28 06:28:51;;;;;;;10.55;7.18;;;10.40;99.50;;;;;;5053353;28;20039;-86
2021/05/28 06:31:16;;;;;;;8.57;5.80;;;10.40;99.40;;;;;;5057776;28;20037;-86
2021/05/28 06:33:42;;;;;;;9.73;6.03;;;10.30;99.50;;;;;;5063836;28;20024;-84
2021/05/28 06:36:08;;;;;;;8.98;6.07;;;10.30;99.60;;;;;;5060503;28;20032;-84
2021/05/28 06:38:34;;;;;;;11.30;6.30;;;10.40;99.60;;;;;;5063237;28;20025;-85
2021/05/28 06:40:59;;;;;;;9.50;6.25;;;10.40;99.90;;;;;;5069915;28;20053;-86
2021/05/28 06:43:25;;;;;;;9.75;6.88;;;10.50;99.70;;;;;;5058269;28;20028;-86
2021/05/28 06:45:51;;;;;;;9.27;6.20;;;10.50;99.80;;;;;;5043460;28;20506;-86
2021/05/28 06:48:16;;;;;;;9.20;6.45;;;10.50;99.80;;;;;;5040243;28;20032;-87
2021/05/28 06:50:42;;;;;;;9.95;6.60;;;10.50;99.80;;;;;;5037686;28;20029;-87
2021/05/28 06:53:09;;;;;;;10.57;6.97;;;10.60;99.80;;;;;;5050067;28;20126;-83
2021/05/28 06:55:35;;;;;;;9.93;6.90;;;10.60;99.80;;;;;;5072280;28;20100;-85
2021/05/28 06:58:01;;;;;;;10.07;7.13;;;10.60;99.80;;;;;;5028701;28;20024;-87
2021/05/28 07:00:27;;;;;;;9.73;6.53;;;10.60;99.80;;;;;;5036664;28;20029;-85
2021/05/28 07:02:56;;;;;;;8.93;6.85;;;10.70;99.80;;;;;;5069053;28;20040;-84
2021/05/28 07:05:24;;;;;;;10.65;6.82;;;10.70;99.80;;;;;;5066753;28;20116;-86
2021/05/28 07:07:50;;;;;;;8.93;6.40;;;10.80;99.80;;;;;;5064769;28;20025;-85
2021/05/28 07:10:16;;;;;;;8.80;6.50;;;10.80;99.80;;;;;;5067568;28;20143;-85
2021/05/28 07:12:42;;;;;;;10.07;6.85;;;10.90;99.90;;;;;;5058140;28;20128;-82
2021/05/28 07:15:08;;;;;;;9.60;6.55;;;11.00;99.90;;;;;;5057877;28;20070;-85
2021/05/28 07:17:34;;;;;;;9.13;6.15;;;11.00;99.90;;;;;;5074747;28;20495;-86
2021/05/28 07:20:00;;;;;;;8.07;5.90;;;11.20;99.90;;;;;;5058220;28;20021;-84
2021/05/28 07:22:26;;;;;;;7.88;6.05;;;11.30;99.90;;;;;;5060750;28;20024;-85
2021/05/28 07:24:51;;;;;;;10.15;7.47;;;11.40;99.90;;;;;;5074621;28;20020;-84
2021/05/28 07:27:17;;;;;;;8.98;6.63;;;11.50;99.90;;;;;;5074388;28;20020;-85
2021/05/28 07:29:43;;;;;;;13.25;9.10;;;11.50;99.90;;;;;;5054339;28;20083;-85
2021/05/28 07:32:08;;;;;;;11.50;8.48;;;11.60;99.90;;;;;;5075893;28;20029;-85
2021/05/28 07:34:35;;;;;;;12.35;8.55;;;11.60;99.70;;;;;;5057739;28;20031;-85
2021/05/28 07:37:00;;;;;;;9.95;7.35;;;11.70;99.50;;;;;;5072470;28;20040;-86
2021/05/28 07:39:26;;;;;;;10.55;7.80;;;11.70;99.50;;;;;;5064131;28;20492;-86
2021/05/28 07:41:52;;;;;;;10.40;6.57;;;11.70;99.50;;;;;;5020267;28;20051;-84
2021/05/28 07:44:17;;;;;;;10.32;6.97;;;11.80;99.60;;;;;;5067448;28;20048;-85
2021/05/28 07:46:44;;;;;;;8.20;5.75;;;11.80;99.60;;;;;;5061091;28;20021;-85
2021/05/28 07:49:14;;;;;;;12.27;8.00;;;11.90;99.70;;;;;;5046364;28;20388;-85
2021/05/28 07:51:41;;;;;;;9.88;7.68;;;12.00;99.60;;;;;;5031992;28;20061;-86
2021/05/28 07:54:07;;;;;;;14.55;10.10;;;12.00;99.50;;;;;;5069886;28;20020;-86
2021/05/28 07:56:34;;;;;;;13.45;9.93;;;12.10;99.50;;;;;;5019615;28;20108;-85
2021/05/28 07:59:00;;;;;;;11.85;9.60;;;12.10;99.40;;;;;;5065045;28;20033;-84
2021/05/28 08:01:27;;;;;;;13.98;9.85;;;12.20;99.30;;;;;;5049317;28;20107;-84
2021/05/28 08:03:53;;;;;;;13.52;9.10;;;12.20;99.30;;;;;;5071121;28;20044;-84
2021/05/28 08:06:19;;;;;;;13.13;9.82;;;12.20;99.60;;;;;;5073765;28;20488;-90
2021/05/28 08:08:44;;;;;;;13.23;10.23;;;12.30;99.30;;;;;;5078275;28;20109;-91
2021/05/28 08:11:10;;;;;;;14.73;11.00;;;12.30;99.20;;;;;;5078191;28;20076;-90
2021/05/28 08:13:36;;;;;;;15.43;10.23;;;12.40;98.90;;;;;;5061636;28;20058;-90
2021/05/28 08:16:02;;;;;;;12.23;8.57;;;12.40;98.90;;;;;;5078551;28;20545;-91
2021/05/28 08:18:29;;;;;;;10.90;9.05;;;12.40;99.00;;;;;;5060836;28;20032;-91
2021/05/28 08:20:55;;;;;;;11.35;8.55;;;12.50;99.00;;;;;;5067481;28;20025;-90
2021/05/28 08:23:20;;;;;;;13.43;8.93;;;12.60;99.10;;;;;;5070263;28;20028;-90
2021/05/28 08:25:49;;;;;;;11.35;8.98;;;12.60;99.00;;;;;;5044632;28;20070;-90
2021/05/28 08:28:15;;;;;;;10.93;9.48;;;12.70;99.10;;;;;;5073833;28;20043;-91
2021/05/28 08:30:41;;;;;;;11.02;8.98;;;12.80;99.10;;;;;;5054322;28;20075;-90
2021/05/28 08:33:08;;;;;;;13.85;9.65;;;12.90;99.10;;;;;;5048719;28;20194;-91
2021/05/28 08:35:34;;;;;;;12.82;10.50;;;13.00;98.70;;;;;;5073646;28;20029;-89
2021/05/28 08:37:59;;;;;;;13.00;10.18;;;13.00;98.70;;;;;;5073060;28;20074;-89
2021/05/28 08:40:29;;;;;;;12.93;9.27;;;13.10;98.70;;;;;;5037068;28;20499;-92
2021/05/28 08:42:59;;;;;;;14.32;10.98;;;13.20;98.50;;;;;;5072979;28;20033;-91
2021/05/28 08:45:26;;;;;;;12.43;10.32;;;13.20;98.10;;;;;;5053600;28;20033;-90
2021/05/28 08:47:52;;;;;;;12.52;9.30;;;13.30;98.00;;;;;;5052603;28;20468;-90
2021/05/28 08:50:20;;;;;;;10.70;8.63;;;13.30;98.30;;;;;;5043319;28;20032;-91
2021/05/28 08:52:45;;;;;;;12.07;9.27;;;13.40;98.30;;;;;;5074696;28;20036;-90
2021/05/28 08:55:11;;;;;;;11.68;8.35;;;13.60;98.30;;;;;;5073531;28;20032;-91
2021/05/28 08:57:37;;;;;;;11.77;8.55;;;13.70;98.00;;;;;;5070576;28;20437;-90
2021/05/28 09:00:04;;;;;;;11.48;8.90;;;13.80;98.00;;;;;;5043291;28;20042;-90
2021/05/28 09:02:35;;;;;;;12.50;8.50;;;13.80;98.10;;;;;;5059966;28;20043;-90
2021/05/28 09:05:05;;;;;;;10.07;8.13;;;13.90;97.70;;;;;;5083961;28;20021;-90
2021/05/28 09:07:30;;;;;;;10.02;8.10;;;14.00;97.90;;;;;;5064915;28;20476;-90
2021/05/28 09:09:56;;;;;;;9.88;7.70;;;14.00;97.70;;;;;;5072841;28;20043;-91
2021/05/28 09:12:28;;;;;;;10.27;8.27;;;14.10;97.70;;;;;;5046509;28;20037;-91
2021/05/28 09:14:54;;;;;;;9.73;7.75;;;14.20;97.20;;;;;;5039402;28;20035;-91
2021/05/28 09:17:21;;;;;;;8.35;6.32;;;14.30;97.30;;;;;;5072397;28;20028;-89
2021/05/28 09:19:57;;;;;;;8.98;6.95;;;14.40;97.50;;;;;;5073838;28;20056;-91
2021/05/28 09:22:37;;;;;;;8.40;6.22;;;14.50;97.30;;;;;;5056230;28;20554;-93
2021/05/28 09:25:03;;;;;;;9.03;6.90;;;14.60;97.30;;;;;;5043915;28;20044;-77
2021/05/28 09:27:33;;;;;;;8.68;6.63;;;14.60;96.80;;;;;;5052821;28;20021;-79
2021/05/28 09:30:11;;;;;;;10.05;6.80;;;14.70;96.40;;;;;;5052037;28;20028;-77
2021/05/28 09:32:42;;;;;;;9.32;6.63;;;14.80;96.00;;;;;;5054167;28;20587;-76
2021/05/28 09:35:10;;;;;;;8.73;5.82;;;14.80;96.10;;;;;;5064774;28;20040;-76
2021/05/28 09:37:41;;;;;;;7.57;6.05;;;14.90;96.00;;;;;;5059585;28;20099;-78
2021/05/28 09:40:17;;;;;;;7.20;5.07;;;15.00;96.00;;;;;;5071319;28;20141;-77
2021/05/28 09:43:03;;;;;;;9.07;5.35;;;15.10;96.10;;;;;;5071709;28;20092;-77
2021/05/28 09:45:36;;;;;;;8.13;5.18;;;15.20;96.20;;;;;;5071252;28;20439;-77
2021/05/28 09:48:15;;;;;;;8.05;5.38;;;15.20;96.10;;;;;;5070943;28;20029;-77
2021/05/28 09:50:49;;;;;;;7.13;5.65;;;15.30;95.60;;;;;;5074707;28;20054;-76
2021/05/28 09:53:31;;;;;;;8.88;5.45;;;15.40;94.30;;;;;;5066555;28;20044;-75
2021/05/28 09:56:21;;;;;;;7.38;5.40;;;15.40;93.80;;;;;;5089842;28;20032;-92
2021/05/28 09:59:13;;;;;;;6.45;4.30;;;15.50;93.00;;;;;;5076897;28;20028;-84
2021/05/28 10:01:55;;;;;;;7.38;5.07;;;15.60;93.50;;;;;;5079598;28;20426;-79
2021/05/28 10:04:21;;;;;;;7.00;5.13;;;15.60;93.70;;;;;;5052442;28;20488;-79
2021/05/28 10:06:49;;;;;;;8.07;4.40;;;15.70;93.80;;;;;;5071634;28;20029;-79
2021/05/28 10:09:15;;;;;;;5.70;4.07;;;15.80;93.90;;;;;;5070997;28;20060;-79
2021/05/28 10:11:41;;;;;;;7.57;4.85;;;15.80;92.70;;;;;;5071265;28;20080;-79
2021/05/28 10:14:09;;;;;;;6.70;4.05;;;15.90;91.70;;;;;;5071050;28;20396;-79
2021/05/28 10:16:35;;;;;;;5.97;3.88;;;15.90;92.00;;;;;;5071304;28;20067;-80
2021/05/28 10:19:01;;;;;;;6.68;3.53;;;16.00;91.20;;;;;;5076684;28;20047;-80
2021/05/28 10:21:27;;;;;;;7.25;3.13;;;16.00;90.50;;;;;;5073666;28;20044;-79
2021/05/28 10:23:53;;;;;;;5.25;3.65;;;16.00;90.60;;;;;;5071815;28;20021;-79
2021/05/28 10:26:31;;;;;;;6.10;3.55;;;16.10;90.30;;;;;;5070977;28;20017;-79
2021/05/28 10:28:57;;;;;;;4.97;3.70;;;16.20;90.90;;;;;;5057573;28;20039;-79
2021/05/28 10:31:51;;;;;;;6.88;4.57;;;16.20;91.20;;;;;;5071160;28;20035;-79
2021/05/28 10:34:16;;;;;;;6.72;4.38;;;16.30;90.60;;;;;;5054517;28;20397;-79
2021/05/28 10:36:45;;;;;;;5.85;3.92;;;16.30;90.50;;;;;;5065962;28;20039;-80
2021/05/28 10:39:12;;;;;;;7.75;4.88;;;16.40;90.20;;;;;;5071238;28;20515;-79
2021/05/28 10:41:47;;;;;;;5.05;3.72;;;16.50;89.30;;;;;;5053509;28;20067;-79
2021/05/28 10:44:25;;;;;;;5.95;3.20;;;16.60;90.10;;;;;;5072342;28;20044;-80
2021/05/28 10:46:54;;;;;;;5.88;4.15;;;16.60;90.70;;;;;;5072774;28;20054;-78
2021/05/28 10:49:36;;;;;;;6.80;4.13;;;16.80;89.10;;;;;;5081712;28;20040;-80
2021/05/28 10:52:03;;;;;;;5.05;3.83;;;16.90;87.20;;;;;;5068263;28;20028;-78
2021/05/28 10:54:31;;;;;;;6.22;4.10;;;16.90;87.30;;;;;;5049790;28;20040;-79
2021/05/28 10:57:17;;;;;;;5.90;3.45;;;17.00;87.20;;;;;;5070335;28;20025;-79
2021/05/28 10:59:48;;;;;;;5.95;3.13;;;17.10;87.00;;;;;;5072494;28;20024;-79
2021/05/28 11:02:15;;;;;;;5.88;4.03;;;17.10;87.80;;;;;;5070896;28;20151;-80
2021/05/28 11:04:41;;;;;;;4.95;3.35;;;17.20;86.60;;;;;;5059940;28;20021;-79
2021/05/28 11:07:10;;;;;;;5.28;3.08;;;17.20;85.00;;;;;;5063546;28;20051;-81
2021/05/28 11:09:44;;;;;;;4.32;3.05;;;17.30;85.60;;;;;;5051718;28;20021;-79
2021/05/28 11:12:35;;;;;;;5.00;2.80;;;17.40;83.20;;;;;;5034849;28;20400;-79
2021/05/28 11:15:09;;;;;;;4.15;2.50;;;17.40;80.80;;;;;;5052145;28;20116;-83
2021/05/28 11:18:09;;;;;;;2.55;1.65;;;17.40;75.40;;;;;;5050395;28;20078;-87
2021/05/28 11:20:42;;;;;;;2.65;1.55;;;17.40;75.00;;;;;;5021684;28;20068;-84
2021/05/28 11:23:22;;;;;;;1.67;1.50;;;17.50;76.30;;;;;;5059464;28;20052;-83
2021/05/28 11:25:53;;;;;;;3.40;2.28;;;17.50;76.20;;;;;;5048818;28;20028;-75
2021/05/28 11:28:19;;;;;;;3.88;1.92;;;17.60;77.60;;;;;;5054901;28;20041;-73
2021/05/28 11:30:46;;;;;;;1.75;1.52;;;17.60;78.20;;;;;;5070170;28;20017;-73
2021/05/28 11:33:39;;;;;;;2.03;1.40;;;17.70;77.80;;;;;;5075714;28;20472;-73
2021/05/28 11:36:26;;;;;;;2.80;1.88;;;17.80;77.80;;;;;;5082510;28;20742;-72
2021/05/28 11:39:00;;;;;;;2.45;1.60;;;17.80;75.70;;;;;;5056290;28;20481;-73
2021/05/28 11:41:52;;;;;;;3.35;1.85;;;17.90;78.20;;;;;;5057834;28;20111;-72
2021/05/28 11:44:18;;;;;;;;;;;18.00;76.20;;;;;;5059755;28;20102;-74
2021/05/28 11:46:46;;;;;;;5.07;2.20;;;18.00;77.40;;;;;;5059945;28;19911;-72
2021/05/28 11:49:19;;;;;;;3.88;2.30;;;18.10;75.30;;;;;;5054166;28;20025;-74
2021/05/28 11:51:45;;;;;;;4.10;2.40;;;18.10;75.00;;;;;;5054070;28;20013;-73
2021/05/28 11:54:29;;;;;;;3.10;2.20;;;18.20;76.90;;;;;;5054033;28;20044;-77
2021/05/28 11:57:05;;;;;;;2.75;1.80;;;18.30;77.60;;;;;;5057918;28;20083;-73
2021/05/28 12:00:10;;;;;;;3.53;1.92;;;18.40;78.40;;;;;;5054567;28;20060;-73
2021/05/28 12:02:52;;;;;;;9.10;2.38;;;18.50;79.10;;;;;;5010813;28;20406;-73
2021/05/28 12:05:22;;;;;;;6.53;2.00;;;18.60;78.40;;;;;;5010736;28;20053;-73
2021/05/28 12:07:48;;;;;;;3.17;1.98;;;18.60;78.80;;;;;;5053651;28;20032;-75
2021/05/28 12:10:14;;;;;;;2.70;1.52;;;18.80;79.30;;;;;;5073464;28;20039;-72
2021/05/28 12:13:10;;;;;;;2.05;1.42;;;18.80;79.40;;;;;;5075007;28;20052;-72
2021/05/28 12:16:07;;;;;;;2.10;1.63;;;18.90;79.80;;;;;;5092423;28;20111;-73
2021/05/28 12:18:47;;;;;;;3.90;1.70;;;19.10;78.60;;;;;;5078413;28;20033;-73
2021/05/28 12:21:17;;;;;;;2.27;1.43;;;19.10;76.90;;;;;;5073674;28;20036;-72
2021/05/28 12:23:47;;;;;;;1.95;1.40;;;19.20;76.60;;;;;;5073096;28;20025;-72
2021/05/28 12:26:20;;;;;;;2.30;1.50;;;19.30;76.50;;;;;;5073438;28;20021;-73
2021/05/28 12:28:55;;;;;;;2.10;1.23;;;19.30;76.20;;;;;;5073388;28;20036;-73
2021/05/28 12:31:26;;;;;;;2.25;1.17;;;19.40;75.60;;;;;;5060433;28;20021;-74
2021/05/28 12:34:06;;;;;;;1.90;1.10;;;19.40;75.30;;;;;;5073322;28;20044;-73
2021/05/28 12:36:37;;;;;;;3.70;1.65;;;19.50;72.60;;;;;;5062828;28;20487;-72
2021/05/28 12:39:07;;;;;;;2.35;1.30;;;19.50;69.80;;;;;;5078683;28;20031;-73
2021/05/28 12:41:34;;;;;;;1.92;1.02;;;19.50;68.10;;;;;;5072532;28;20028;-72
2021/05/28 12:44:03;;;;;;;1.77;1.30;;;19.50;68.90;;;;;;5072636;28;20129;-73
2021/05/28 12:46:37;;;;;;;2.83;1.50;;;19.60;69.60;;;;;;5072369;28;20036;-73
2021/05/28 12:49:11;;;;;;;2.55;1.80;;;19.60;69.90;;;;;;5072011;28;20029;-72
2021/05/28 12:51:48;;;;;;;2.22;1.50;;;19.60;60.10;;;;;;5072035;28;20044;-73
2021/05/28 12:54:19;;;;;;;2.53;1.50;;;19.70;62.70;;;;;;5072537;28;20094;-72